createdAt,value
2018-12-24T15:54:47.356Z,6.70
2018-12-24T15:57:22.290Z,3.60
2018-12-24T15:59:56.697Z,3.43
2018-12-24T16:02:28.327Z,3.43
2018-12-24T16:05:00.041Z,3.97
2018-12-24T16:07:31.839Z,3.70
2018-12-24T16:10:07.397Z,3.23
2018-12-24T16:12:39.018Z,2.93
2018-12-24T16:15:10.707Z,3.70
2018-12-24T16:17:42.452Z,3.40
2018-12-24T16:20:14.042Z,3.90
2018-12-24T16:22:45.644Z,4.30
2018-12-24T16:25:17.326Z,5.37
2018-12-24T16:27:49.033Z,6.93
2018-12-24T16:30:20.656Z,7.17
2018-12-24T16:32:52.596Z,7.43
2018-12-24T16:35:24.218Z,5.83
2018-12-24T16:37:57.713Z,5.20
2018-12-24T16:40:29.344Z,4.13
2018-12-24T16:43:01.025Z,4.70
2018-12-24T16:45:32.718Z,4.50
2018-12-24T16:48:04.595Z,4.17
2018-12-24T16:50:36.176Z,5.47
2018-12-24T16:53:07.817Z,4.63
2018-12-24T16:55:39.376Z,4.90
2018-12-24T16:58:11.248Z,5.57
2018-12-24T17:00:42.832Z,6.30
2018-12-24T17:03:14.405Z,4.30
2018-12-24T17:05:46.302Z,3.25
2018-12-24T17:08:23.934Z,5.70
2018-12-24T17:11:00.144Z,3.30
2018-12-24T17:13:31.737Z,3.60
2018-12-24T17:16:04.663Z,5.17
2018-12-24T17:18:36.277Z,4.70
2018-12-24T17:21:12.541Z,4.78
2018-12-24T17:23:45.757Z,4.93
2018-12-24T17:26:18.573Z,6.00
2018-12-24T17:28:50.157Z,5.43
2018-12-24T17:31:21.799Z,7.33
2018-12-24T17:33:56.666Z,9.60
2018-12-24T17:36:28.543Z,9.90
2018-12-24T17:39:03.309Z,6.50
2018-12-24T17:41:36.945Z,6.70
2018-12-24T17:44:10.548Z,7.20
2018-12-24T17:46:41.845Z,6.83
2018-12-24T17:49:13.441Z,6.43
2018-12-24T17:51:48.093Z,7.13
2018-12-24T17:54:21.354Z,6.17
2018-12-24T17:56:54.605Z,6.70
2018-12-24T17:59:26.164Z,5.97
2018-12-24T18:01:58.220Z,6.25
2018-12-24T18:04:30.973Z,11.00
2018-12-24T18:07:04.698Z,12.10
2018-12-24T18:09:36.436Z,7.40
2018-12-24T18:12:08.324Z,5.00
2018-12-24T18:14:40.021Z,5.30
2018-12-24T18:17:24.512Z,6.05
2018-12-24T18:19:49.973Z,6.80
2018-12-24T18:22:23.609Z,5.55
2018-12-24T18:24:57.006Z,6.73
2018-12-24T18:27:35.890Z,7.60
2018-12-24T18:30:10.861Z,8.10
2018-12-24T18:32:42.733Z,9.68
2018-12-24T18:35:14.408Z,10.17
2018-12-24T18:37:48.087Z,7.33
2018-12-24T18:40:26.019Z,7.60
2018-12-24T18:43:03.253Z,6.75
2018-12-24T18:45:36.896Z,8.23
2018-12-24T18:48:08.737Z,7.83
2018-12-24T18:50:42.409Z,7.33
2018-12-24T18:53:16.344Z,8.50
2018-12-24T18:55:54.100Z,8.90
2018-12-24T18:58:26.013Z,9.28
2018-12-24T19:00:59.558Z,9.23
2018-12-24T19:03:32.628Z,8.87
2018-12-24T19:06:07.360Z,9.05
2018-12-24T19:08:39.239Z,8.75
2018-12-24T19:11:12.521Z,10.83
2018-12-24T19:13:45.197Z,11.43
2018-12-24T19:16:17.063Z,11.93
2018-12-24T19:18:48.649Z,11.00
2018-12-24T19:21:20.530Z,9.38
2018-12-24T19:23:53.877Z,10.10
2018-12-24T19:26:25.783Z,10.20
2018-12-24T19:28:59.214Z,10.85
2018-12-24T19:31:33.696Z,8.20
2018-12-24T19:34:11.256Z,7.67
2018-12-24T19:36:45.636Z,8.23
2018-12-24T19:39:19.819Z,8.00
2018-12-24T19:41:51.706Z,8.25
2018-12-24T19:44:23.448Z,7.40
2018-12-24T19:46:55.330Z,7.60
2018-12-24T19:49:27.205Z,8.25
2018-12-24T19:51:59.092Z,7.90
2018-12-24T19:54:32.155Z,8.80
2018-12-24T19:57:07.072Z,7.47
2018-12-24T19:59:41.872Z,8.83
2018-12-24T20:02:16.435Z,7.90
2018-12-24T20:04:51.337Z,6.75
2018-12-24T20:07:25.653Z,7.15
2018-12-24T20:09:59.357Z,8.50
2018-12-24T20:12:32.894Z,8.50
2018-12-24T20:15:06.067Z,8.05
2018-12-24T20:17:37.979Z,7.53
2018-12-24T20:20:09.940Z,6.70
2018-12-24T20:22:41.834Z,7.17
2018-12-24T20:25:13.759Z,8.50
2018-12-24T20:27:51.605Z,8.18
2018-12-24T20:30:25.443Z,9.53
2018-12-24T20:32:59.272Z,14.85
2018-12-24T20:35:31.204Z,13.85
2018-12-24T20:38:04.411Z,11.65
2018-12-24T20:40:39.162Z,11.65
2018-12-24T20:43:11.075Z,12.33
2018-12-24T20:45:45.698Z,12.15
2018-12-24T20:48:17.719Z,11.33
2018-12-24T20:50:49.588Z,12.45
2018-12-24T20:53:21.501Z,11.03
2018-12-24T20:55:53.381Z,10.60
2018-12-24T20:58:25.320Z,10.10
2018-12-24T21:01:00.250Z,9.98
2018-12-24T21:03:36.613Z,10.63
2018-12-24T21:06:09.980Z,10.55
2018-12-24T21:08:41.881Z,9.95
2018-12-24T21:11:13.785Z,9.53
2018-12-24T21:13:45.760Z,10.13
2018-12-24T21:16:17.692Z,14.65
2018-12-24T21:18:49.577Z,14.25
2018-12-24T21:21:21.475Z,11.30
2018-12-24T21:23:53.624Z,14.55
2018-12-24T21:26:25.531Z,15.68
2018-12-24T21:28:57.422Z,14.80
2018-12-24T21:31:29.487Z,15.00
2018-12-24T21:34:01.359Z,12.85
2018-12-24T21:36:33.290Z,14.00
2018-12-24T21:39:07.745Z,14.28
2018-12-24T21:41:39.679Z,13.80
2018-12-24T21:44:11.556Z,13.08
2018-12-24T21:46:43.514Z,12.90
2018-12-24T21:49:15.664Z,12.33
2018-12-24T21:51:49.390Z,12.60
2018-12-24T21:54:21.301Z,10.68
2018-12-24T21:56:53.205Z,11.38
2018-12-24T21:59:25.060Z,10.65
2018-12-24T22:01:56.965Z,9.80
2018-12-24T22:04:28.954Z,9.48
2018-12-24T22:07:00.892Z,9.63
2018-12-24T22:09:32.788Z,10.25
2018-12-24T22:12:04.914Z,9.40
2018-12-24T22:14:36.789Z,9.63
2018-12-24T22:17:08.698Z,10.00
2018-12-24T22:19:40.554Z,9.50
2018-12-24T22:22:12.460Z,9.80
2018-12-24T22:24:44.374Z,21.27
2018-12-24T22:27:16.335Z,17.85
2018-12-24T22:29:48.334Z,16.12
2018-12-24T22:32:20.365Z,14.10
2018-12-24T22:34:52.255Z,11.22
2018-12-24T22:37:27.124Z,11.90
2018-12-24T22:39:59.052Z,11.45
2018-12-24T22:42:30.955Z,9.93
2018-12-24T22:45:02.867Z,10.63
2018-12-24T22:47:34.793Z,13.72
2018-12-24T22:50:09.511Z,13.95
2018-12-24T22:52:41.399Z,12.10
2018-12-24T22:55:14.770Z,11.40
2018-12-24T22:57:46.679Z,9.63
2018-12-24T23:00:32.222Z,9.30
2018-12-24T23:03:04.507Z,9.38
2018-12-24T23:05:36.401Z,8.80
2018-12-24T23:08:08.302Z,8.50
2018-12-24T23:10:40.290Z,8.45
2018-12-24T23:13:12.174Z,14.20
2018-12-24T23:15:44.058Z,10.10
2018-12-24T23:18:15.949Z,9.43
2018-12-24T23:20:47.926Z,10.32
2018-12-24T23:23:19.917Z,9.93
2018-12-24T23:25:52.058Z,8.05
2018-12-24T23:28:30.357Z,7.92
2018-12-24T23:31:02.248Z,10.20
2018-12-24T23:33:34.142Z,9.95
2018-12-24T23:36:06.029Z,9.23
2018-12-24T23:38:37.945Z,10.13
2018-12-24T23:41:09.870Z,8.70
2018-12-24T23:43:41.763Z,8.30
2018-12-24T23:46:13.688Z,8.85
2018-12-24T23:48:45.529Z,9.00
2018-12-24T23:51:18.985Z,7.95
2018-12-24T23:53:52.549Z,8.95
2018-12-24T23:56:24.466Z,8.40
2018-12-24T23:58:56.375Z,9.05
